Time;durP1;ratioP1;P1;durP2;ratioP2;P2;SDS_P1;SDS_P2;PMS_P1;PMS_P2;Temp;Humidity;BMP_temperature;BMP_pressure;BME280_temperature;BME280_humidity;BME280_pressure;Samples;Min_cycle;Max_cycle;Signal;HPM_P1;HPM_P2
2021/12/29 00:00:23;;;;;;;8.55;4.00;;;;;;;-148.16;100.00;58328.31;5033818;28;20041;-60
2021/12/29 00:03:10;;;;;;;8.55;4.38;;;;;;;-148.16;100.00;58328.31;5033780;28;20052;-60
2021/12/29 00:05:56;;;;;;;7.03;4.30;;;;;;;-148.16;100.00;58328.31;5037664;28;20053;-60
2021/12/29 00:08:42;;;;;;;9.23;4.60;;;;;;;-148.16;100.00;58328.31;5037240;28;20489;-60
2021/12/29 00:11:28;;;;;;;9.50;4.82;;;;;;;-148.16;100.00;58328.31;5033448;28;20377;-60
2021/12/29 00:14:13;;;;;;;10.13;4.80;;;;;;;-148.16;100.00;58328.31;5033297;28;20045;-59
2021/12/29 00:16:59;;;;;;;11.15;4.95;;;;;;;-148.16;100.00;58328.31;5033193;28;20064;-59
2021/12/29 00:19:45;;;;;;;9.88;4.68;;;;;;;-148.16;100.00;58328.31;5032342;28;20064;-60
2021/12/29 00:22:31;;;;;;;9.00;4.68;;;;;;;-148.16;100.00;58328.31;5032999;28;20412;-59
2021/12/29 00:25:18;;;;;;;9.57;4.30;;;;;;;-148.16;100.00;58328.31;5032244;28;20053;-59
2021/12/29 00:28:03;;;;;;;9.00;4.70;;;;;;;-148.16;100.00;58328.31;5033359;28;20049;-60
2021/12/29 00:30:51;;;;;;;12.13;5.88;;;;;;;-148.16;100.00;58328.31;5033476;28;20049;-60
2021/12/29 00:33:56;;;;;;;10.98;5.35;;;;;;;-148.16;100.00;58328.31;5038065;28;20041;-59
2021/12/29 00:37:00;;;;;;;11.48;5.55;;;;;;;-148.16;100.00;58328.31;5033226;28;20049;-61
2021/12/29 00:40:05;;;;;;;12.35;5.38;;;;;;;-148.16;100.00;58328.31;5037807;28;20121;-59
2021/12/29 00:43:09;;;;;;;13.07;4.95;;;;;;;-148.16;100.00;58328.31;5033085;28;20049;-60
2021/12/29 00:46:17;;;;;;;11.18;4.80;;;;;;;-148.16;100.00;58328.31;5033148;28;20049;-59
2021/12/29 00:49:03;;;;;;;18.55;6.53;;;;;;;-148.16;100.00;58328.31;5032915;28;20049;-59
2021/12/29 00:51:49;;;;;;;14.30;6.43;;;;;;;-148.16;100.00;58328.31;5032787;28;20041;-60
2021/12/29 00:54:38;;;;;;;11.52;5.43;;;;;;;-148.16;100.00;58328.31;5032560;28;20481;-59
2021/12/29 00:57:24;;;;;;;14.55;6.32;;;;;;;-148.16;100.00;58328.31;5031878;28;20061;-60
2021/12/29 01:00:15;;;;;;;14.93;5.78;;;;;;;-148.16;100.00;58328.31;5037725;28;20405;-60
2021/12/29 01:03:01;;;;;;;;;;;;;;;-148.16;100.00;58328.31;5032266;28;20484;-60
2021/12/29 01:05:47;;;;;;;9.88;4.88;;;;;;;-148.16;100.00;58328.31;5032513;28;19913;-59
2021/12/29 01:08:33;;;;;;;16.25;6.05;;;;;;;-148.16;100.00;58328.31;5032298;28;20041;-60
2021/12/29 01:11:18;;;;;;;12.38;5.93;;;;;;;-148.16;100.00;58328.31;5031626;28;20049;-59
2021/12/29 01:14:07;;;;;;;11.27;5.03;;;;;;;-148.16;100.00;58328.31;5032569;28;20354;-60
2021/12/29 01:16:53;;;;;;;13.32;5.50;;;;;;;-148.16;100.00;58328.31;5038084;28;20049;-60
2021/12/29 01:19:39;;;;;;;13.27;6.28;;;;;;;-148.16;100.00;58328.31;5039441;28;20046;-60
2021/12/29 01:22:25;;;;;;;11.75;5.38;;;;;;;-148.16;100.00;58328.31;5038169;28;20041;-61
2021/12/29 01:25:10;;;;;;;16.17;6.10;;;;;;;-148.16;100.00;58328.31;5039386;28;20053;-60
2021/12/29 01:27:57;;;;;;;15.10;6.22;;;;;;;-148.16;100.00;58328.31;5039209;28;20072;-60
2021/12/29 01:30:44;;;;;;;16.52;6.57;;;;;;;-148.16;100.00;58328.31;5037740;28;20424;-61
2021/12/29 01:33:30;;;;;;;12.77;6.38;;;;;;;-148.16;100.00;58328.31;5044811;28;20045;-59
2021/12/29 01:36:15;;;;;;;11.98;5.85;;;;;;;-148.16;100.00;58328.31;5038071;28;20376;-60
2021/12/29 01:39:05;;;;;;;14.90;5.78;;;;;;;-148.16;100.00;58328.31;5043996;28;20049;-60
2021/12/29 01:41:54;;;;;;;14.35;5.85;;;;;;;-148.16;100.00;58328.31;5039285;28;20460;-60
2021/12/29 01:44:40;;;;;;;12.60;5.68;;;;;;;-148.16;100.00;58328.31;5038045;28;20049;-60
2021/12/29 01:47:29;;;;;;;12.93;5.32;;;;;;;-148.16;100.00;58328.31;5039301;28;20146;-60
2021/12/29 01:50:17;;;;;;;11.98;5.80;;;;;;;-148.16;100.00;58328.31;5039120;28;20048;-60
2021/12/29 01:53:08;;;;;;;15.05;6.47;;;;;;;-148.16;100.00;58328.31;5039014;28;20049;-60
2021/12/29 01:55:55;;;;;;;12.80;6.18;;;;;;;-148.16;100.00;58328.31;5038737;28;20045;-59
2021/12/29 01:58:41;;;;;;;12.75;5.25;;;;;;;-148.16;100.00;58328.31;5039090;28;20516;-59
2021/12/29 02:01:27;;;;;;;14.38;6.03;;;;;;;-148.16;100.00;58328.31;5036646;28;20053;-60
2021/12/29 02:04:13;;;;;;;15.63;6.60;;;;;;;-148.16;100.00;58328.31;5024059;28;20050;-60
2021/12/29 02:06:59;;;;;;;16.48;6.35;;;;;;;-148.16;100.00;58328.31;5018102;28;20041;-60
2021/12/29 02:09:45;;;;;;;12.50;5.50;;;;;;;-148.16;100.00;58328.31;5019222;28;20046;-60
2021/12/29 02:12:31;;;;;;;12.18;5.85;;;;;;;-148.16;100.00;58328.31;5018945;28;20050;-60
2021/12/29 02:15:18;;;;;;;16.25;5.18;;;;;;;-148.16;100.00;58328.31;5023600;28;20053;-60
2021/12/29 02:18:13;;;;;;;11.77;5.40;;;;;;;-148.16;100.00;58328.31;5019079;28;20054;-60
2021/12/29 02:20:59;;;;;;;10.45;5.13;;;;;;;-148.16;100.00;58328.31;5030734;28;20054;-60
2021/12/29 02:23:55;;;;;;;11.23;5.07;;;;;;;-148.16;100.00;58328.31;5018809;28;20054;-60
2021/12/29 02:26:43;;;;;;;12.02;5.15;;;;;;;-148.16;100.00;58328.31;5018289;28;20054;-60
2021/12/29 02:29:31;;;;;;;11.00;4.82;;;;;;;-148.16;100.00;58328.31;5015806;28;20045;-60
2021/12/29 02:32:16;;;;;;;10.32;4.72;;;;;;;-148.16;100.00;58328.31;5015600;28;20058;-60
2021/12/29 02:35:03;;;;;;;14.30;5.20;;;;;;;-148.16;100.00;58328.31;5015667;28;20041;-60
2021/12/29 02:37:49;;;;;;;9.77;4.95;;;;;;;-148.16;100.00;58328.31;5015592;28;20058;-60
2021/12/29 02:40:36;;;;;;;10.45;5.30;;;;;;;-148.16;100.00;58328.31;5020252;28;20481;-60
2021/12/29 02:43:23;;;;;;;12.68;5.53;;;;;;;-148.16;100.00;58328.31;5014375;28;20046;-60
2021/12/29 02:46:12;;;;;;;12.02;5.40;;;;;;;-148.16;100.00;58328.31;5015463;28;20042;-60
2021/12/29 02:49:02;;;;;;;12.45;5.05;;;;;;;-148.16;100.00;58328.31;5028081;28;20058;-60
2021/12/29 02:51:48;;;;;;;10.55;4.90;;;;;;;-148.16;100.00;58328.31;5015028;28;20049;-60
2021/12/29 02:54:34;;;;;;;10.35;5.32;;;;;;;-148.16;100.00;58328.31;5041949;28;20046;-62
2021/12/29 02:57:20;;;;;;;14.48;5.35;;;;;;;-148.16;100.00;58328.31;5048069;28;20042;-60
2021/12/29 03:00:10;;;;;;;12.48;5.38;;;;;;;-148.16;100.00;58328.31;5013924;28;20050;-61
2021/12/29 03:02:56;;;;;;;12.98;5.53;;;;;;;-148.16;100.00;58328.31;5015177;28;20477;-60
2021/12/29 03:05:43;;;;;;;12.32;5.15;;;;;;;-148.16;100.00;58328.31;5014863;28;20046;-60
2021/12/29 03:08:28;;;;;;;14.50;6.40;;;;;;;-148.16;100.00;58328.31;5015065;28;20054;-59
2021/12/29 03:11:14;;;;;;;15.98;5.70;;;;;;;-148.16;100.00;58328.31;5013920;28;20046;-60
2021/12/29 03:14:01;;;;;;;12.57;6.20;;;;;;;-148.16;100.00;58328.31;5015246;28;20461;-60
2021/12/29 03:16:47;;;;;;;11.52;4.97;;;;;;;-148.16;100.00;58328.31;5014963;28;20054;-60
2021/12/29 03:19:33;;;;;;;12.20;5.70;;;;;;;-148.16;100.00;58328.31;5014736;28;20053;-60
2021/12/29 03:22:19;;;;;;;14.93;5.38;;;;;;;-148.16;100.00;58328.31;5024689;28;20049;-59
2021/12/29 03:25:06;;;;;;;11.35;4.75;;;;;;;-148.16;100.00;58328.31;5040379;28;20053;-60
2021/12/29 03:27:58;;;;;;;12.32;5.30;;;;;;;-148.16;100.00;58328.31;5034619;28;20057;-60
2021/12/29 03:30:48;;;;;;;11.38;5.38;;;;;;;-148.16;100.00;58328.31;5034262;28;20037;-59
2021/12/29 03:33:34;;;;;;;12.15;5.45;;;;;;;-148.16;100.00;58328.31;5033180;28;20053;-60
2021/12/29 03:36:20;;;;;;;11.80;4.80;;;;;;;-148.16;100.00;58328.31;5034285;28;20045;-59
2021/12/29 03:39:06;;;;;;;12.65;5.72;;;;;;;-148.16;100.00;58328.31;5032885;28;20045;-60
2021/12/29 03:41:52;;;;;;;12.10;5.22;;;;;;;-148.16;100.00;58328.31;5033981;28;20061;-59
2021/12/29 03:44:38;;;;;;;18.05;5.85;;;;;;;-148.16;100.00;58328.31;5033748;28;20045;-59
2021/12/29 03:47:24;;;;;;;10.98;5.35;;;;;;;-148.16;100.00;58328.31;5026451;28;20049;-61
2021/12/29 03:50:10;;;;;;;13.50;4.47;;;;;;;-148.16;100.00;58328.31;5032748;28;20485;-61
2021/12/29 03:52:57;;;;;;;12.38;5.60;;;;;;;-148.16;100.00;58328.31;5033537;28;20049;-61
2021/12/29 03:55:45;;;;;;;16.20;5.07;;;;;;;-148.16;100.00;58328.31;5033397;28;20042;-61
2021/12/29 03:58:31;;;;;;;12.85;4.93;;;;;;;-148.16;100.00;58328.31;5033437;28;20049;-61
2021/12/29 04:01:18;;;;;;;13.77;5.97;;;;;;;-148.16;100.00;58328.31;5033796;28;20038;-60
2021/12/29 04:04:04;;;;;;;14.48;5.85;;;;;;;-148.16;100.00;58328.31;5033445;28;20041;-59
2021/12/29 04:06:50;;;;;;;17.70;6.68;;;;;;;-148.16;100.00;58328.31;5018665;28;20041;-60
2021/12/29 04:09:36;;;;;;;16.20;6.63;;;;;;;-148.16;100.00;58328.31;5033399;28;20050;-59
2021/12/29 04:12:22;;;;;;;13.18;5.75;;;;;;;-148.16;100.00;58328.31;5039293;28;20053;-60
2021/12/29 04:15:10;;;;;;;15.95;5.80;;;;;;;-148.16;100.00;58328.31;5033437;28;20045;-61
2021/12/29 04:18:03;;;;;;;14.18;5.70;;;;;;;-148.16;100.00;58328.31;5032201;28;20041;-60
2021/12/29 04:20:54;;;;;;;17.60;7.03;;;;;;;-148.16;100.00;58328.31;5033247;28;20476;-60
2021/12/29 04:23:40;;;;;;;13.65;6.22;;;;;;;-148.16;100.00;58328.31;5033160;28;20575;-60
2021/12/29 04:26:26;;;;;;;13.00;6.25;;;;;;;-148.16;100.00;58328.31;5039238;28;20041;-60
2021/12/29 04:29:13;;;;;;;16.75;6.28;;;;;;;-148.16;100.00;58328.31;5038026;28;20046;-60
2021/12/29 04:31:59;;;;;;;14.10;6.40;;;;;;;-148.16;100.00;58328.31;5033230;28;20480;-60
2021/12/29 04:34:45;;;;;;;14.05;5.53;;;;;;;-148.16;100.00;58328.31;5033123;28;20045;-61
2021/12/29 04:37:31;;;;;;;14.15;6.05;;;;;;;-148.16;100.00;58328.31;5033047;28;20034;-60
2021/12/29 04:40:17;;;;;;;17.70;6.32;;;;;;;-148.16;100.00;58328.31;5032908;28;20053;-59
2021/12/29 04:43:04;;;;;;;16.83;6.10;;;;;;;-148.16;100.00;58328.31;5033021;28;20049;-60
2021/12/29 04:45:50;;;;;;;14.38;6.03;;;;;;;-148.16;100.00;58328.31;5033227;28;20050;-60
2021/12/29 04:48:38;;;;;;;13.30;6.03;;;;;;;-148.16;100.00;58328.31;5032727;28;20049;-60
2021/12/29 04:51:33;;;;;;;13.02;6.10;;;;;;;-148.16;100.00;58328.31;5023440;28;20041;-61
2021/12/29 04:54:18;;;;;;;15.02;5.75;;;;;;;-148.16;100.00;58328.31;5033098;28;20045;-61
2021/12/29 04:57:04;;;;;;;15.35;5.90;;;;;;;-148.16;100.00;58328.31;5031955;28;20053;-60
2021/12/29 04:59:50;;;;;;;14.30;5.13;;;;;;;-148.16;100.00;58328.31;5032864;28;20411;-61
2021/12/29 05:02:36;;;;;;;12.27;5.07;;;;;;;-148.16;100.00;58328.31;5032713;28;20405;-60
2021/12/29 05:08:29;;;;;;;11.80;4.95;;;;;;;-148.16;100.00;58328.31;5038755;28;20050;-61
2021/12/29 05:11:15;;;;;;;16.63;6.35;;;;;;;-148.16;100.00;58328.31;5032431;28;20041;-60
2021/12/29 05:14:00;;;;;;;13.00;4.90;;;;;;;-148.16;100.00;58328.31;5032529;28;20049;-61
2021/12/29 05:16:46;;;;;;;13.18;4.60;;;;;;;-148.16;100.00;58328.31;5032337;28;20493;-61
2021/12/29 05:19:33;;;;;;;11.15;5.03;;;;;;;-148.16;100.00;58328.31;5032221;28;20045;-60
2021/12/29 05:22:19;;;;;;;12.73;5.18;;;;;;;-148.16;100.00;58328.31;5032298;28;20041;-60
2021/12/29 05:25:05;;;;;;;12.63;4.97;;;;;;;-148.16;100.00;58328.31;5032618;28;20049;-61
2021/12/29 05:27:51;;;;;;;13.50;4.47;;;;;;;-148.16;100.00;58328.31;5031322;28;20140;-60
2021/12/29 05:30:37;;;;;;;11.10;4.57;;;;;;;-148.16;100.00;58328.31;5032135;28;20049;-62
2021/12/29 05:33:23;;;;;;;13.30;5.45;;;;;;;-148.16;100.00;58328.31;5032191;28;20041;-60
2021/12/29 05:36:09;;;;;;;12.82;4.70;;;;;;;-148.16;100.00;58328.31;5031131;28;20041;-59
2021/12/29 05:38:56;;;;;;;10.30;4.68;;;;;;;-148.16;100.00;58328.31;5032076;28;20053;-60
2021/12/29 05:41:42;;;;;;;10.85;3.75;;;;;;;-148.16;100.00;58328.31;5032343;28;20053;-60
2021/12/29 05:44:28;;;;;;;7.70;3.60;;;;;;;-148.16;100.00;58328.31;5038172;28;20049;-60
2021/12/29 05:47:13;;;;;;;10.55;3.85;;;;;;;-148.16;100.00;58328.31;5032354;28;20057;-60
2021/12/29 05:49:59;;;;;;;10.63;4.18;;;;;;;-148.16;100.00;58328.31;5037872;28;20408;-61
2021/12/29 05:52:45;;;;;;;11.27;3.90;;;;;;;-148.16;100.00;58328.31;5032165;28;20053;-60
2021/12/29 05:55:31;;;;;;;11.77;4.53;;;;;;;-148.16;100.00;58328.31;5031979;28;20045;-61
2021/12/29 05:58:17;;;;;;;11.77;3.72;;;;;;;-148.16;100.00;58328.31;5032420;28;20045;-60
2021/12/29 06:01:04;;;;;;;11.15;4.88;;;;;;;-148.16;100.00;58328.31;5032191;28;20492;-60
2021/12/29 06:03:50;;;;;;;10.88;4.72;;;;;;;-148.16;100.00;58328.31;5035179;28;20042;-59
2021/12/29 06:06:35;;;;;;;10.18;4.60;;;;;;;-148.16;100.00;58328.31;5034858;28;20053;-60
2021/12/29 06:09:21;;;;;;;11.65;4.95;;;;;;;-148.16;100.00;58328.31;5035886;28;20045;-59
2021/12/29 06:12:08;;;;;;;15.77;5.68;;;;;;;-148.16;100.00;58328.31;5036143;28;20049;-60
2021/12/29 06:14:55;;;;;;;10.98;4.93;;;;;;;-148.16;100.00;58328.31;5035911;28;20053;-60
2021/12/29 06:17:40;;;;;;;13.10;4.93;;;;;;;-148.16;100.00;58328.31;5035586;28;20038;-59
2021/12/29 06:20:26;;;;;;;9.82;4.35;;;;;;;-148.16;100.00;58328.31;5035581;28;20488;-59
2021/12/29 06:23:14;;;;;;;10.25;4.35;;;;;;;-148.16;100.00;58328.31;5035261;28;20453;-62
2021/12/29 06:25:59;;;;;;;11.98;4.75;;;;;;;-148.16;100.00;58328.31;5034655;28;20054;-59
2021/12/29 06:28:46;;;;;;;10.52;4.63;;;;;;;-148.16;100.00;58328.31;5035435;28;20408;-60
2021/12/29 06:31:35;;;;;;;11.25;4.10;;;;;;;-148.16;100.00;58328.31;5035434;28;20049;-60
2021/12/29 06:34:21;;;;;;;9.93;4.18;;;;;;;-148.16;100.00;58328.31;5035356;28;20057;-60
2021/12/29 06:37:09;;;;;;;9.45;4.38;;;;;;;-148.16;100.00;58328.31;5034937;28;20038;-60
2021/12/29 06:39:54;;;;;;;11.43;5.22;;;;;;;-148.16;100.00;58328.31;5035207;28;20049;-59
2021/12/29 06:42:41;;;;;;;10.45;4.70;;;;;;;-148.16;100.00;58328.31;5034939;28;20049;-60
2021/12/29 06:45:26;;;;;;;12.20;5.40;;;;;;;-148.16;100.00;58328.31;5033971;28;20041;-60
2021/12/29 06:48:12;;;;;;;9.60;4.45;;;;;;;-148.16;100.00;58328.31;5034965;28;20050;-60
2021/12/29 06:50:58;;;;;;;10.73;4.60;;;;;;;-148.16;100.00;58328.31;5034879;28;20045;-60
2021/12/29 06:53:44;;;;;;;11.65;4.47;;;;;;;-148.16;100.00;58328.31;5034849;28;20058;-61
2021/12/29 06:56:30;;;;;;;10.25;4.20;;;;;;;-148.16;100.00;58328.31;5034602;28;20042;-61
2021/12/29 06:59:16;;;;;;;8.05;4.03;;;;;;;-148.16;100.00;58328.31;5034731;28;20045;-59
2021/12/29 07:02:02;;;;;;;10.25;4.10;;;;;;;-148.16;100.00;58328.31;5033809;28;20061;-62
2021/12/29 07:04:48;;;;;;;10.55;4.63;;;;;;;-148.16;100.00;58328.31;5039333;28;20053;-58
2021/12/29 07:07:34;;;;;;;8.27;4.57;;;;;;;-148.16;100.00;58328.31;5040580;28;20049;-59
2021/12/29 07:10:21;;;;;;;7.63;3.83;;;;;;;-148.16;100.00;58328.31;5035050;28;20353;-60
2021/12/29 07:13:07;;;;;;;7.95;4.18;;;;;;;-148.16;100.00;58328.31;5034177;28;20049;-60
2021/12/29 07:15:54;;;;;;;10.98;4.63;;;;;;;-148.16;100.00;58328.31;5039239;28;20046;-59
2021/12/29 07:18:39;;;;;;;9.80;4.88;;;;;;;-148.16;100.00;58328.31;5039309;28;20049;-60
2021/12/29 07:21:25;;;;;;;8.73;4.20;;;;;;;-148.16;100.00;58328.31;5034158;28;20045;-60
2021/12/29 07:24:11;;;;;;;11.00;4.70;;;;;;;-148.16;100.00;58328.31;5034208;28;20053;-60
2021/12/29 07:26:57;;;;;;;11.43;5.22;;;;;;;-148.16;100.00;58328.31;5034105;28;20053;-59
2021/12/29 07:29:43;;;;;;;13.95;5.53;;;;;;;-148.16;100.00;58328.31;5034079;28;20416;-60
2021/12/29 07:32:31;;;;;;;11.63;5.35;;;;;;;-148.16;100.00;58328.31;5034195;28;20037;-60
2021/12/29 07:35:17;;;;;;;11.80;4.80;;;;;;;-148.16;100.00;58328.31;5033153;28;20404;-60
2021/12/29 07:38:02;;;;;;;11.32;5.03;;;;;;;-148.16;100.00;58328.31;5033084;28;20412;-60
2021/12/29 07:40:48;;;;;;;9.60;4.45;;;;;;;-148.16;100.00;58328.31;5034155;28;20053;-60
2021/12/29 07:43:38;;;;;;;14.27;5.60;;;;;;;-148.16;100.00;58328.31;5033845;28;20053;-61
2021/12/29 07:46:24;;;;;;;9.07;4.32;;;;;;;-148.16;100.00;58328.31;5033770;28;20049;-59
2021/12/29 07:49:09;;;;;;;9.98;4.43;;;;;;;-148.16;100.00;58328.31;5033971;28;20053;-60
2021/12/29 07:51:55;;;;;;;11.02;5.05;;;;;;;-148.16;100.00;58328.31;5033738;28;20364;-60
2021/12/29 07:54:41;;;;;;;9.55;4.45;;;;;;;-148.16;100.00;58328.31;5033587;28;20046;-60
2021/12/29 07:57:27;;;;;;;9.95;3.88;;;;;;;-148.16;100.00;58328.31;5033341;28;20045;-60
2021/12/29 08:00:15;;;;;;;9.15;4.72;;;;;;;-148.16;100.00;58328.31;5032381;28;20484;-60
2021/12/29 08:03:01;;;;;;;11.07;4.80;;;;;;;-148.16;100.00;58328.31;5033441;28;20121;-61
2021/12/29 08:05:47;;;;;;;10.10;4.05;;;;;;;-148.16;100.00;58328.31;5033730;28;20045;-61
2021/12/29 08:08:34;;;;;;;11.93;5.47;;;;;;;-148.16;100.00;58328.31;5033086;28;20045;-60
2021/12/29 08:11:20;;;;;;;12.63;4.35;;;;;;;-148.16;100.00;58328.31;5033362;28;20037;-61
2021/12/29 08:14:07;;;;;;;9.98;4.38;;;;;;;-148.16;100.00;58328.31;5038035;28;20049;-61
2021/12/29 08:16:53;;;;;;;12.40;5.30;;;;;;;-148.16;100.00;58328.31;5031997;28;20045;-61
2021/12/29 08:19:39;;;;;;;12.25;4.50;;;;;;;-148.16;100.00;58328.31;5033379;28;20400;-62
2021/12/29 08:22:24;;;;;;;12.65;5.35;;;;;;;-148.16;100.00;58328.31;5033257;28;20053;-61
2021/12/29 08:25:10;;;;;;;8.77;3.83;;;;;;;-148.16;100.00;58328.31;5031647;28;20046;-60
2021/12/29 08:27:57;;;;;;;8.77;4.22;;;;;;;-148.16;100.00;58328.31;5033166;28;20049;-60
2021/12/29 08:30:42;;;;;;;8.77;4.07;;;;;;;-148.16;100.00;58328.31;5032838;28;20045;-59
2021/12/29 08:33:28;;;;;;;11.00;4.68;;;;;;;-148.16;100.00;58328.31;5037693;28;20038;-59
2021/12/29 08:36:14;;;;;;;7.90;4.00;;;;;;;-148.16;100.00;58328.31;5032643;28;20041;-59
2021/12/29 08:39:00;;;;;;;11.70;4.40;;;;;;;-148.16;100.00;58328.31;5032434;28;20049;-60
2021/12/29 08:41:47;;;;;;;8.55;4.20;;;;;;;-148.16;100.00;58328.31;5033070;28;20484;-60
2021/12/29 08:44:32;;;;;;;7.68;3.95;;;;;;;-148.16;100.00;58328.31;5032901;28;20041;-60
2021/12/29 08:47:20;;;;;;;9.07;4.55;;;;;;;-148.16;100.00;58328.31;5037715;28;20057;-59
2021/12/29 08:50:07;;;;;;;10.00;4.50;;;;;;;-148.16;100.00;58328.31;5032566;28;20492;-60
2021/12/29 08:52:53;;;;;;;10.63;4.57;;;;;;;-148.16;100.00;58328.31;5032515;28;20088;-61
2021/12/29 08:55:46;;;;;;;9.30;4.63;;;;;;;-148.16;100.00;58328.31;5037144;28;20071;-61
2021/12/29 08:58:34;;;;;;;8.32;3.72;;;;;;;-148.16;100.00;58328.31;5032432;28;20045;-60
2021/12/29 09:01:21;;;;;;;8.68;4.40;;;;;;;-148.16;100.00;58328.31;5032622;28;20049;-60
2021/12/29 09:04:07;;;;;;;11.73;4.28;;;;;;;-148.16;100.00;58328.31;5031240;28;20045;-60
2021/12/29 09:06:53;;;;;;;7.80;4.40;;;;;;;-148.16;100.00;58328.31;5037191;28;20049;-59
2021/12/29 09:09:39;;;;;;;12.05;5.15;;;;;;;-148.16;100.00;58328.31;5032417;28;20465;-59
2021/12/29 09:12:25;;;;;;;9.90;5.00;;;;;;;-148.16;100.00;58328.31;5032473;28;20049;-60
2021/12/29 09:15:11;;;;;;;13.55;5.97;;;;;;;-148.16;100.00;58328.31;5032465;28;20053;-60
2021/12/29 09:17:59;;;;;;;16.08;6.22;;;;;;;-148.16;100.00;58328.31;5037046;28;20049;-60
2021/12/29 09:20:46;;;;;;;11.35;5.55;;;;;;;-148.16;100.00;58328.31;5032223;28;20075;-60
2021/12/29 09:23:33;;;;;;;14.05;5.25;;;;;;;-148.16;100.00;58328.31;5032212;28;20046;-60
2021/12/29 09:26:19;;;;;;;14.68;6.03;;;;;;;-148.16;100.00;58328.31;5037239;28;20057;-59
2021/12/29 09:29:05;;;;;;;13.70;6.60;;;;;;;-148.16;100.00;58328.31;5032296;28;20049;-60
2021/12/29 09:31:51;;;;;;;14.35;7.07;;;;;;;-148.16;100.00;58328.31;5032164;28;20045;-59
2021/12/29 09:34:37;;;;;;;15.50;6.85;;;;;;;-148.16;100.00;58328.31;5032018;28;20045;-60
2021/12/29 09:37:23;;;;;;;13.30;5.68;;;;;;;-148.16;100.00;58328.31;5034179;28;20049;-60
2021/12/29 09:40:11;;;;;;;17.15;6.95;;;;;;;-148.16;100.00;58328.31;5036236;28;20758;-60
2021/12/29 09:42:57;;;;;;;18.75;6.80;;;;;;;-148.16;100.00;58328.31;5036278;28;20049;-61
2021/12/29 09:45:45;;;;;;;15.40;6.03;;;;;;;-148.16;100.00;58328.31;5035895;28;20136;-60
2021/12/29 09:48:31;;;;;;;18.30;8.20;;;;;;;-148.16;100.00;58328.31;5035975;28;20050;-60
2021/12/29 09:51:18;;;;;;;15.45;7.10;;;;;;;-148.16;100.00;58328.31;5035081;28;20396;-60
2021/12/29 09:54:04;;;;;;;16.40;7.07;;;;;;;-148.16;100.00;58328.31;5036060;28;20045;-60
2021/12/29 09:56:49;;;;;;;21.90;9.95;;;;;;;-148.16;100.00;58328.31;5035992;28;20049;-60
2021/12/29 09:59:35;;;;;;;20.27;7.63;;;;;;;-148.16;100.00;58328.31;5036265;28;20049;-60
2021/12/29 10:02:21;;;;;;;16.00;7.25;;;;;;;-148.16;100.00;58328.31;5035922;28;20041;-59
2021/12/29 10:05:07;;;;;;;16.88;7.20;;;;;;;-148.16;100.00;58328.31;5034823;28;20038;-60
2021/12/29 10:08:09;;;;;;;20.08;8.60;;;;;;;-148.16;100.00;58328.31;5035950;28;20058;-59
2021/12/29 10:11:01;;;;;;;22.65;8.30;;;;;;;-148.16;100.00;58328.31;5035965;28;20049;-60
2021/12/29 10:13:47;;;;;;;;;;;;;;;-148.16;100.00;58328.31;5036612;28;20053;-60
2021/12/29 10:16:33;;;;;;;16.80;7.22;;;;;;;-148.16;100.00;58328.31;5034601;28;19920;-60
2021/12/29 10:19:19;;;;;;;20.88;8.27;;;;;;;-148.16;100.00;58328.31;5036050;28;20049;-61
2021/12/29 10:22:05;;;;;;;19.75;7.80;;;;;;;-148.16;100.00;58328.31;5035428;28;20481;-62
2021/12/29 10:25:06;;;;;;;19.48;8.45;;;;;;;-148.16;100.00;58328.31;5035534;28;20152;-60
2021/12/29 10:27:53;;;;;;;19.58;7.50;;;;;;;-148.16;100.00;58328.31;5040134;28;20053;-61
2021/12/29 10:30:38;;;;;;;19.42;8.45;;;;;;;-148.16;100.00;58328.31;5035259;28;20041;-61
2021/12/29 10:33:29;;;;;;;14.68;5.75;;;;;;;-148.16;100.00;58328.31;5035423;28;20050;-61
2021/12/29 10:36:23;;;;;;;16.80;7.53;;;;;;;-148.16;100.00;58328.31;5035704;28;20049;-60
2021/12/29 10:39:28;;;;;;;14.85;6.75;;;;;;;-148.16;100.00;58328.31;5035323;28;20057;-61
2021/12/29 10:42:17;;;;;;;16.77;6.57;;;;;;;-148.16;100.00;58328.31;5034555;28;20049;-60
2021/12/29 10:45:03;;;;;;;21.35;8.80;;;;;;;-148.16;100.00;58328.31;5035483;28;20046;-61
2021/12/29 10:47:49;;;;;;;13.30;6.13;;;;;;;-148.16;100.00;58328.31;5035509;28;20049;-60
2021/12/29 10:50:35;;;;;;;11.65;5.53;;;;;;;-148.16;100.00;58328.31;5035391;28;20049;-60
2021/12/29 10:53:21;;;;;;;13.98;5.93;;;;;;;-148.16;100.00;58328.31;5026017;28;20054;-60
2021/12/29 10:56:23;;;;;;;13.82;6.22;;;;;;;-148.16;100.00;58328.31;5039958;28;20417;-61
2021/12/29 10:59:28;;;;;;;11.70;5.60;;;;;;;-148.16;100.00;58328.31;5033934;28;20053;-61
2021/12/29 11:02:27;;;;;;;14.32;5.90;;;;;;;-148.16;100.00;58328.31;5033794;28;20038;-61
2021/12/29 11:05:13;;;;;;;12.23;5.80;;;;;;;-148.16;100.00;58328.31;5034714;28;20042;-61
2021/12/29 11:08:09;;;;;;;10.40;4.95;;;;;;;-148.16;100.00;58328.31;5034714;28;20404;-62
2021/12/29 11:11:02;;;;;;;10.98;5.43;;;;;;;-148.16;100.00;58328.31;5035309;28;20429;-63
2021/12/29 11:13:47;;;;;;;32.47;8.32;;;;;;;-148.16;100.00;58328.31;5041137;28;20049;-60
2021/12/29 11:16:33;;;;;;;9.98;5.25;;;;;;;-148.16;100.00;58328.31;5034871;28;20464;-60
2021/12/29 11:19:20;;;;;;;9.55;4.82;;;;;;;-148.16;100.00;58328.31;5034880;28;20057;-60
2021/12/29 11:22:15;;;;;;;5.82;3.80;;;;;;;-148.16;100.00;58328.31;5034438;28;20049;-59
2021/12/29 11:25:04;;;;;;;9.38;4.43;;;;;;;-148.16;100.00;58328.31;5034377;28;20041;-60
2021/12/29 11:27:49;;;;;;;13.23;6.25;;;;;;;-148.16;100.00;58328.31;5034479;28;20049;-61
2021/12/29 11:30:40;;;;;;;9.48;4.80;;;;;;;-148.16;100.00;58328.31;5034580;28;20049;-61
2021/12/29 11:33:30;;;;;;;9.75;4.70;;;;;;;-148.16;100.00;58328.31;5033803;28;20045;-61
2021/12/29 11:36:22;;;;;;;15.02;6.28;;;;;;;-148.16;100.00;58328.31;5034245;28;20145;-61
2021/12/29 11:39:08;;;;;;;10.40;4.97;;;;;;;-148.16;100.00;58328.31;5034420;28;20041;-61
2021/12/29 11:41:55;;;;;;;11.73;5.30;;;;;;;-148.16;100.00;58328.31;5033221;28;20400;-60
2021/12/29 11:44:41;;;;;;;14.55;7.10;;;;;;;-148.16;100.00;58328.31;5034514;28;20049;-60
2021/12/29 11:47:28;;;;;;;8.43;4.75;;;;;;;-148.16;100.00;58328.31;5034433;28;20054;-60
2021/12/29 11:50:28;;;;;;;12.57;5.70;;;;;;;-148.16;100.00;58328.31;5034301;28;20041;-61
2021/12/29 11:53:25;;;;;;;8.38;4.50;;;;;;;-148.16;100.00;58328.31;5034046;28;20049;-61
2021/12/29 11:56:18;;;;;;;10.48;5.18;;;;;;;-148.16;100.00;58328.31;5034136;28;20045;-61
2021/12/29 11:59:04;;;;;;;10.55;5.03;;;;;;;-148.16;100.00;58328.31;5018900;28;20037;-61
2021/12/29 12:01:57;;;;;;;11.30;4.50;;;;;;;-148.16;100.00;58328.31;5032815;28;20049;-61
2021/12/29 12:04:47;;;;;;;9.13;4.90;;;;;;;-148.16;100.00;58328.31;5033481;28;20461;-60
2021/12/29 12:07:33;;;;;;;8.77;4.35;;;;;;;-148.16;100.00;58328.31;5033031;28;20045;-61
2021/12/29 12:10:33;;;;;;;9.00;5.43;;;;;;;-148.16;100.00;58328.31;5033782;28;20049;-60
2021/12/29 12:13:25;;;;;;;8.80;4.68;;;;;;;-148.16;100.00;58328.31;5033533;28;20400;-59
2021/12/29 12:16:13;;;;;;;12.25;5.40;;;;;;;-148.16;100.00;58328.31;5033289;28;20397;-60
2021/12/29 12:18:59;;;;;;;8.57;4.20;;;;;;;-148.16;100.00;58328.31;5033231;28;20045;-60
2021/12/29 12:21:45;;;;;;;8.50;4.72;;;;;;;-148.16;100.00;58328.31;5033336;28;20049;-60
2021/12/29 12:24:33;;;;;;;7.72;4.28;;;;;;;-148.16;100.00;58328.31;5024189;28;20050;-59
2021/12/29 12:27:46;;;;;;;10.15;5.28;;;;;;;-148.16;100.00;58328.31;5032654;28;20405;-60
2021/12/29 12:30:41;;;;;;;8.90;5.38;;;;;;;-148.16;100.00;58328.31;5039364;28;20389;-61
2021/12/29 12:33:29;;;;;;;7.90;4.57;;;;;;;-148.16;100.00;58328.31;5032421;28;20440;-61
2021/12/29 12:36:16;;;;;;;9.68;5.13;;;;;;;-148.16;100.00;58328.31;5033130;28;20049;-61
2021/12/29 12:39:18;;;;;;;10.32;5.18;;;;;;;-148.16;100.00;58328.31;5033156;28;20049;-61